createdAt,value
2019-02-16T00:01:00.657Z,9.03
2019-02-16T00:03:29.948Z,10.20
2019-02-16T00:05:59.183Z,8.93
2019-02-16T00:11:55.386Z,15.03
2019-02-16T00:14:24.611Z,9.57
2019-02-16T00:16:53.830Z,8.03
2019-02-16T00:22:31.564Z,8.83
2019-02-16T00:25:00.784Z,10.23
2019-02-16T00:27:30.043Z,9.63
2019-02-16T00:30:18.626Z,10.23
2019-02-16T00:36:02.378Z,7.93
2019-02-16T00:38:31.578Z,7.60
2019-02-16T00:41:00.788Z,12.90
2019-02-16T00:43:30.028Z,8.73
2019-02-16T00:46:39.301Z,9.87
2019-02-16T00:49:27.879Z,9.33
2019-02-16T00:51:57.123Z,9.67
2019-02-16T00:54:45.684Z,7.50
2019-02-16T00:57:34.258Z,7.33
2019-02-16T01:00:43.571Z,8.53
2019-02-16T01:03:12.786Z,8.83
2019-02-16T01:06:01.356Z,8.13
2019-02-16T01:08:49.692Z,10.97
2019-02-16T01:11:38.282Z,9.73
2019-02-16T01:14:07.510Z,9.63
2019-02-16T01:16:36.755Z,10.23
2019-02-16T01:19:05.973Z,9.40
2019-02-16T01:21:35.209Z,9.03
2019-02-16T01:24:04.433Z,9.93
2019-02-16T01:26:52.998Z,8.73
2019-02-16T01:29:22.206Z,8.00
2019-02-16T01:31:51.464Z,8.27
2019-02-16T01:34:40.044Z,7.87
2019-02-16T01:39:55.959Z,9.07
2019-02-16T01:42:25.286Z,11.93
2019-02-16T01:45:13.867Z,8.77
2019-02-16T01:47:43.105Z,8.80
2019-02-16T01:50:12.401Z,7.80
2019-02-16T01:52:41.666Z,9.03
2019-02-16T01:55:30.239Z,10.47
2019-02-16T01:57:59.518Z,9.07
2019-02-16T02:00:28.768Z,8.90
2019-02-16T02:03:17.356Z,8.43
2019-02-16T02:05:46.602Z,11.50
2019-02-16T02:08:15.889Z,11.67
2019-02-16T02:10:45.126Z,11.47
2019-02-16T02:13:14.388Z,8.70
2019-02-16T02:16:02.953Z,9.67
2019-02-16T02:18:32.233Z,8.27
2019-02-16T02:21:01.469Z,8.10
2019-02-16T02:23:30.747Z,11.60
2019-02-16T02:26:19.344Z,9.83
2019-02-16T02:29:07.992Z,9.90
2019-02-16T02:31:37.675Z,8.70
2019-02-16T02:34:27.305Z,9.73
2019-02-16T02:40:47.672Z,8.17
2019-02-16T02:43:16.945Z,10.27
2019-02-16T02:45:46.195Z,11.47
2019-02-16T02:48:15.453Z,9.70
2019-02-16T02:51:04.049Z,9.43
2019-02-16T02:53:33.332Z,10.93
2019-02-16T03:00:24.208Z,9.50
2019-02-16T03:02:53.449Z,10.43
2019-02-16T03:05:42.112Z,8.23
2019-02-16T03:11:00.536Z,10.43
2019-02-16T03:13:29.783Z,10.17
2019-02-16T03:15:59.067Z,10.13
2019-02-16T03:18:28.305Z,10.83
2019-02-16T03:20:57.598Z,11.07
2019-02-16T03:23:26.853Z,11.33
2019-02-16T03:26:36.210Z,11.10
2019-02-16T03:29:45.523Z,9.97
2019-02-16T03:32:53.522Z,12.23
2019-02-16T03:36:19.024Z,11.47
2019-02-16T03:39:28.316Z,10.03
2019-02-16T03:42:16.911Z,10.07
2019-02-16T03:44:46.156Z,10.87
2019-02-16T03:47:34.777Z,10.47
2019-02-16T03:50:44.061Z,10.93
2019-02-16T03:53:32.648Z,12.03
2019-02-16T03:56:01.941Z,10.70
2019-02-16T03:58:31.222Z,12.77
2019-02-16T04:01:19.817Z,8.67
2019-02-16T04:03:49.092Z,8.57
2019-02-16T04:06:18.339Z,11.73
2019-02-16T04:09:06.962Z,10.03
2019-02-16T04:11:36.191Z,10.20
2019-02-16T04:14:05.461Z,10.30
2019-02-16T04:16:34.701Z,11.30
2019-02-16T04:19:23.280Z,10.37
2019-02-16T04:21:52.527Z,12.23
2019-02-16T04:24:21.776Z,9.93
2019-02-16T04:27:10.329Z,9.43
2019-02-16T04:29:58.936Z,10.13
2019-02-16T04:32:47.497Z,10.00
2019-02-16T04:35:36.144Z,9.60
2019-02-16T04:38:24.735Z,11.33
2019-02-16T04:40:53.985Z,14.20
2019-02-16T04:43:23.207Z,9.03
2019-02-16T04:45:52.461Z,9.63
2019-02-16T04:48:21.689Z,11.83
2019-02-16T04:50:50.934Z,11.37
2019-02-16T04:53:20.160Z,15.03
2019-02-16T04:56:08.757Z,15.33
2019-02-16T04:58:57.339Z,10.63
2019-02-16T05:01:45.913Z,11.93
2019-02-16T05:04:34.487Z,11.73
2019-02-16T05:07:03.730Z,11.90
2019-02-16T05:09:52.299Z,12.87
2019-02-16T05:12:21.541Z,10.13
2019-02-16T05:14:50.776Z,11.40
2019-02-16T05:17:20.003Z,10.33
2019-02-16T05:19:49.239Z,13.00
2019-02-16T05:22:18.481Z,11.00
2019-02-16T05:25:07.065Z,18.50
2019-02-16T05:27:36.296Z,13.33
2019-02-16T05:30:45.542Z,10.83
2019-02-16T05:33:34.128Z,11.67
2019-02-16T05:38:52.041Z,11.37
2019-02-16T05:44:10.440Z,11.20
2019-02-16T05:46:39.658Z,8.93
2019-02-16T05:49:08.903Z,10.80
2019-02-16T05:51:38.148Z,11.70
2019-02-16T05:54:26.728Z,11.53
2019-02-16T05:57:15.379Z,9.40
2019-02-16T05:59:44.619Z,9.97
2019-02-16T06:02:33.177Z,10.83
2019-02-16T06:05:02.419Z,12.73
2019-02-16T06:07:31.644Z,10.40
2019-02-16T06:10:00.904Z,11.47
2019-02-16T06:12:30.127Z,9.17
2019-02-16T06:14:59.372Z,10.13
2019-02-16T06:17:47.929Z,12.00
2019-02-16T06:20:17.163Z,9.43
2019-02-16T06:22:46.375Z,11.10
2019-02-16T06:25:34.971Z,11.80
2019-02-16T06:28:23.538Z,9.97
2019-02-16T06:31:12.102Z,13.37
2019-02-16T06:34:00.667Z,12.57
2019-02-16T06:36:49.308Z,10.80
2019-02-16T06:39:37.904Z,11.57
2019-02-16T06:42:07.136Z,11.03
2019-02-16T06:44:49.083Z,10.43
2019-02-16T06:47:18.325Z,10.37
2019-02-16T06:50:06.942Z,10.83
2019-02-16T06:52:55.474Z,11.43
2019-02-16T06:58:53.031Z,11.80
2019-02-16T07:01:41.653Z,12.97
2019-02-16T07:04:30.214Z,13.97
2019-02-16T07:07:18.785Z,11.27
2019-02-16T07:10:27.553Z,11.60
2019-02-16T07:13:16.178Z,12.03
2019-02-16T07:16:23.871Z,11.67
2019-02-16T07:22:11.167Z,10.30
2019-02-16T07:31:24.762Z,12.87
2019-02-16T07:33:53.998Z,11.87
2019-02-16T07:36:42.588Z,11.33
2019-02-16T07:39:11.833Z,10.13
2019-02-16T07:42:00.403Z,12.17
2019-02-16T07:45:00.698Z,13.00
2019-02-16T07:50:38.902Z,15.60
2019-02-16T07:59:54.421Z,9.80
2019-02-16T08:03:02.124Z,13.90
2019-02-16T08:05:50.485Z,9.97
2019-02-16T08:08:38.834Z,11.63
2019-02-16T08:11:27.242Z,11.73
2019-02-16T08:14:36.863Z,13.50
2019-02-16T08:18:02.404Z,11.77
2019-02-16T08:24:19.274Z,14.30
2019-02-16T08:27:07.631Z,15.47
2019-02-16T08:29:56.949Z,11.13
2019-02-16T08:33:04.654Z,11.20
2019-02-16T08:49:09.209Z,18.60
2019-02-16T08:52:16.891Z,12.40
2019-02-16T08:58:03.799Z,10.57
2019-02-16T09:01:11.486Z,14.27
2019-02-16T09:04:19.169Z,8.90
2019-02-16T09:10:16.542Z,12.77
2019-02-16T09:13:24.233Z,13.37
2019-02-16T09:25:21.093Z,10.43
2019-02-16T09:28:29.805Z,10.80
2019-02-16T09:41:05.825Z,13.63
2019-02-16T09:44:06.592Z,13.77
2019-02-16T09:46:55.045Z,11.23
2019-02-16T09:50:02.736Z,14.53
2019-02-16T09:53:10.426Z,13.03
2019-02-16T09:56:18.126Z,13.40
2019-02-16T09:59:25.832Z,13.83
2019-02-16T10:02:33.517Z,11.13
2019-02-16T10:16:53.568Z,9.23
2019-02-16T10:32:14.482Z,13.70
2019-02-16T10:34:58.261Z,13.17
2019-02-16T10:37:29.153Z,17.10
2019-02-16T10:40:15.086Z,16.37
2019-02-16T10:42:54.670Z,15.67
2019-02-16T10:45:48.955Z,17.07
2019-02-16T10:48:22.526Z,15.67
2019-02-16T10:50:56.445Z,19.03
2019-02-16T10:53:27.329Z,18.90
2019-02-16T10:55:59.236Z,19.23
2019-02-16T10:58:33.139Z,19.30
2019-02-16T11:01:06.765Z,20.93
2019-02-16T11:03:48.638Z,21.37
2019-02-16T11:06:25.075Z,19.03
2019-02-16T11:08:55.968Z,23.93
2019-02-16T11:11:47.268Z,21.03
2019-02-16T11:14:23.826Z,23.13
2019-02-16T11:17:09.202Z,25.27
2019-02-16T11:19:40.085Z,19.03
2019-02-16T11:22:11.889Z,22.10
2019-02-16T11:24:45.984Z,21.03
2019-02-16T11:27:16.873Z,20.27
2019-02-16T11:30:14.501Z,21.20
2019-02-16T11:32:45.454Z,25.03
2019-02-16T11:35:16.406Z,22.63
2019-02-16T11:38:04.502Z,20.80
2019-02-16T11:40:57.884Z,22.80
2019-02-16T11:43:31.571Z,21.60
2019-02-16T11:46:02.554Z,22.73
2019-02-16T11:48:35.912Z,17.07
2019-02-16T11:51:12.622Z,23.43
2019-02-16T11:53:43.561Z,18.77
2019-02-16T11:56:14.463Z,22.57
2019-02-16T11:58:52.198Z,21.33
2019-02-16T12:01:23.097Z,20.23
2019-02-16T12:04:09.222Z,25.73
2019-02-16T12:06:40.155Z,20.37
2019-02-16T12:09:16.912Z,22.87
2019-02-16T12:11:50.260Z,24.90
2019-02-16T12:14:21.121Z,19.47
2019-02-16T12:17:01.827Z,20.83
2019-02-16T12:19:35.408Z,22.00
2019-02-16T12:22:09.297Z,26.13
2019-02-16T12:24:43.143Z,21.17
2019-02-16T12:27:26.252Z,25.70
2019-02-16T12:30:13.323Z,21.47
2019-02-16T12:32:44.236Z,22.27
2019-02-16T12:35:15.193Z,26.83
2019-02-16T12:37:46.103Z,23.70
2019-02-16T12:40:19.735Z,23.43
2019-02-16T12:42:53.477Z,24.67
2019-02-16T12:45:27.548Z,25.00
2019-02-16T12:48:24.440Z,23.27
2019-02-16T12:51:17.330Z,26.03
2019-02-16T12:54:03.163Z,21.80
2019-02-16T12:56:50.769Z,25.67
2019-02-16T12:59:24.677Z,23.03
2019-02-16T13:01:58.260Z,25.77
2019-02-16T13:04:38.200Z,23.00
2019-02-16T13:07:21.077Z,23.30
2019-02-16T13:09:54.418Z,25.50
2019-02-16T13:12:35.373Z,20.80
2019-02-16T13:15:22.257Z,24.30
2019-02-16T13:18:01.868Z,31.70
2019-02-16T13:20:32.811Z,25.30
2019-02-16T13:23:12.476Z,25.17
2019-02-16T13:25:50.409Z,25.57
2019-02-16T13:28:21.287Z,25.30
2019-02-16T13:31:00.650Z,26.00
2019-02-16T13:33:47.681Z,24.30
2019-02-16T13:36:32.580Z,28.27
2019-02-16T13:39:09.478Z,26.30
2019-02-16T13:41:43.273Z,27.50
2019-02-16T13:44:14.133Z,29.77
2019-02-16T13:46:56.778Z,27.17
2019-02-16T13:49:35.748Z,23.90
2019-02-16T13:52:28.656Z,21.93
2019-02-16T13:55:00.431Z,27.27
2019-02-16T13:57:51.676Z,25.40
2019-02-16T14:00:22.905Z,27.70
2019-02-16T14:03:13.223Z,22.83
2019-02-16T14:05:46.776Z,29.17
2019-02-16T14:08:20.594Z,29.07
2019-02-16T14:11:06.401Z,29.73
2019-02-16T14:13:52.527Z,27.27
2019-02-16T14:16:23.422Z,30.03
2019-02-16T14:18:52.662Z,29.03
2019-02-16T14:21:22.042Z,30.80
2019-02-16T14:23:51.786Z,30.13
2019-02-16T14:26:21.154Z,32.43
2019-02-16T14:28:50.435Z,28.63
2019-02-16T14:31:28.042Z,27.50
2019-02-16T14:33:50.974Z,33.43
2019-02-16T14:36:25.036Z,31.37
2019-02-16T14:38:58.673Z,32.67
2019-02-16T14:41:33.623Z,33.63
2019-02-16T14:44:14.485Z,32.10
2019-02-16T14:46:51.093Z,30.60
2019-02-16T14:49:21.505Z,28.50
2019-02-16T14:51:50.841Z,26.73
2019-02-16T14:54:20.263Z,29.27
2019-02-16T14:56:59.748Z,26.97
2019-02-16T14:59:31.608Z,28.60
2019-02-16T15:02:01.047Z,27.10
2019-02-16T15:04:30.299Z,28.67
2019-02-16T15:07:11.694Z,26.53
2019-02-16T15:09:41.235Z,24.50
2019-02-16T15:12:18.202Z,30.37
2019-02-16T15:14:49.544Z,28.40
2019-02-16T15:17:19.199Z,27.77
2019-02-16T15:19:57.469Z,28.53
2019-02-16T15:22:26.702Z,26.70
2019-02-16T15:25:02.715Z,25.50
2019-02-16T15:27:31.970Z,24.40
2019-02-16T15:30:01.502Z,32.03
2019-02-16T15:32:30.789Z,28.43
2019-02-16T15:35:00.322Z,28.50
2019-02-16T15:37:31.468Z,23.70
2019-02-16T15:40:00.765Z,25.17
2019-02-16T15:42:29.998Z,23.20
2019-02-16T15:44:59.232Z,25.60
2019-02-16T15:47:43.205Z,24.37
2019-02-16T15:50:21.785Z,27.80
2019-02-16T15:53:02.212Z,28.70
2019-02-16T15:55:33.439Z,31.30
2019-02-16T15:58:02.695Z,26.43
2019-02-16T16:00:39.118Z,27.80
2019-02-16T16:03:08.418Z,26.57
2019-02-16T16:05:37.645Z,26.03
2019-02-16T16:08:08.522Z,32.23
2019-02-16T16:10:51.417Z,28.03
2019-02-16T16:13:44.617Z,30.37
2019-02-16T16:16:35.083Z,26.93
2019-02-16T16:19:18.772Z,26.33
2019-02-16T16:21:49.652Z,25.77
2019-02-16T16:24:38.608Z,33.63
2019-02-16T16:27:25.710Z,27.20
2019-02-16T16:30:04.502Z,28.83
2019-02-16T16:32:35.380Z,27.43
2019-02-16T16:35:27.736Z,29.47
2019-02-16T16:38:10.679Z,24.13
2019-02-16T16:40:44.600Z,34.13
2019-02-16T16:43:15.464Z,25.23
2019-02-16T16:46:03.695Z,26.87
2019-02-16T16:48:43.322Z,33.07
2019-02-16T16:51:16.668Z,26.63
2019-02-16T16:53:50.251Z,26.17
2019-02-16T16:56:28.343Z,28.47
2019-02-16T16:59:10.192Z,30.40
2019-02-16T17:01:47.933Z,29.43
2019-02-16T17:04:21.361Z,28.07
2019-02-16T17:06:59.280Z,32.13
2019-02-16T17:09:41.977Z,34.27
2019-02-16T17:12:21.915Z,28.37
2019-02-16T17:15:02.030Z,28.03
2019-02-16T17:17:49.382Z,26.30
2019-02-16T17:20:31.995Z,28.47
2019-02-16T17:23:09.867Z,25.53
2019-02-16T17:25:52.567Z,25.30
2019-02-16T17:28:28.030Z,27.17
2019-02-16T17:31:14.775Z,28.23
2019-02-16T17:33:51.724Z,22.83
2019-02-16T17:36:55.849Z,23.57
2019-02-16T17:39:26.755Z,26.60
2019-02-16T17:42:19.109Z,24.50
2019-02-16T17:44:55.809Z,25.23
2019-02-16T17:47:41.714Z,25.23
2019-02-16T17:50:15.277Z,30.20
2019-02-16T17:53:12.488Z,31.03
2019-02-16T17:55:43.356Z,26.63
2019-02-16T17:58:17.908Z,27.23
2019-02-16T18:00:48.794Z,24.67
2019-02-16T18:03:19.674Z,25.43
2019-02-16T18:05:50.745Z,24.40
2019-02-16T18:08:27.534Z,26.03
2019-02-16T18:10:58.397Z,25.67
2019-02-16T18:13:39.208Z,24.97
2019-02-16T18:16:13.038Z,24.77
2019-02-16T18:18:43.904Z,26.20
2019-02-16T18:21:16.746Z,25.60
2019-02-16T18:23:50.647Z,29.53
2019-02-16T18:26:21.530Z,29.67
2019-02-16T18:28:57.419Z,28.80
2019-02-16T18:31:26.039Z,27.77
2019-02-16T18:33:56.935Z,25.03
2019-02-16T18:36:45.041Z,26.40
2019-02-16T18:39:27.839Z,24.83
2019-02-16T18:42:01.508Z,32.00
2019-02-16T18:44:36.790Z,37.57
2019-02-16T18:47:25.511Z,29.93
2019-02-16T18:50:10.960Z,24.90
2019-02-16T18:52:51.951Z,26.00
2019-02-16T18:55:33.032Z,27.10
2019-02-16T18:58:21.166Z,25.47
2019-02-16T19:00:56.699Z,26.13
2019-02-16T19:03:33.110Z,23.87
2019-02-16T19:06:03.949Z,25.43
2019-02-16T19:08:51.240Z,22.80
2019-02-16T19:11:36.429Z,25.60
2019-02-16T19:14:16.275Z,24.63
2019-02-16T19:16:47.150Z,25.73
2019-02-16T19:19:18.161Z,26.07
2019-02-16T19:21:55.266Z,31.13
2019-02-16T19:24:31.736Z,27.90
2019-02-16T19:27:16.598Z,29.40
2019-02-16T19:30:27.139Z,26.53
2019-02-16T19:33:10.237Z,31.63
2019-02-16T19:35:42.182Z,26.47
2019-02-16T19:38:45.170Z,26.70
2019-02-16T19:41:19.290Z,26.10
2019-02-16T19:44:17.988Z,26.37
2019-02-16T19:46:55.236Z,25.33
2019-02-16T19:49:26.152Z,27.17
2019-02-16T19:52:05.787Z,25.93
2019-02-16T19:54:52.654Z,23.17
2019-02-16T19:57:43.333Z,24.20
2019-02-16T20:00:30.733Z,27.83
2019-02-16T20:03:23.831Z,29.43
2019-02-16T20:06:03.502Z,23.93
2019-02-16T20:08:52.128Z,33.17
2019-02-16T20:11:31.669Z,28.50
2019-02-16T20:14:27.114Z,28.30
2019-02-16T20:17:01.045Z,24.70
2019-02-16T20:19:48.438Z,25.90
2019-02-16T20:22:34.367Z,27.67
2019-02-16T20:25:20.462Z,26.43
2019-02-16T20:28:11.145Z,27.70
2019-02-16T20:30:52.848Z,31.63
2019-02-16T20:33:26.277Z,30.47
2019-02-16T20:36:26.428Z,30.57
2019-02-16T20:39:13.336Z,30.43
2019-02-16T20:41:50.809Z,28.47
2019-02-16T20:44:25.000Z,33.37
2019-02-16T20:46:55.872Z,30.03
2019-02-16T20:49:43.279Z,29.90
2019-02-16T20:52:16.254Z,29.73
2019-02-16T20:55:05.938Z,29.53
2019-02-16T20:57:47.447Z,29.43
2019-02-16T21:00:13.383Z,30.40
2019-02-16T21:02:49.995Z,26.97
2019-02-16T21:05:43.936Z,26.97
2019-02-16T21:08:21.820Z,30.97
2019-02-16T21:11:09.339Z,31.27
2019-02-16T21:13:51.697Z,32.90
2019-02-16T21:16:24.147Z,28.30
2019-02-16T21:18:55.078Z,26.83
2019-02-16T21:21:37.930Z,27.43
2019-02-16T21:24:17.410Z,31.13
2019-02-16T21:27:06.171Z,31.57
2019-02-16T21:29:39.045Z,31.07
2019-02-16T21:32:28.855Z,27.53
2019-02-16T21:35:14.683Z,29.30
2019-02-16T21:37:57.928Z,28.60
2019-02-16T21:40:36.882Z,28.80
2019-02-16T21:43:09.722Z,31.57
2019-02-16T21:45:42.551Z,32.83
2019-02-16T21:48:25.337Z,31.90
2019-02-16T21:51:22.441Z,33.23
2019-02-16T21:54:09.549Z,32.87
2019-02-16T21:56:40.430Z,29.63
2019-02-16T21:59:19.153Z,31.10
2019-02-16T22:01:59.982Z,33.23
2019-02-16T22:04:33.623Z,31.43
2019-02-16T22:07:10.565Z,32.70
2019-02-16T22:10:03.570Z,34.10
2019-02-16T22:12:40.222Z,31.60
2019-02-16T22:15:14.127Z,33.60
2019-02-16T22:17:49.092Z,31.53
2019-02-16T22:20:18.343Z,40.30
2019-02-16T22:22:47.575Z,30.93
2019-02-16T22:25:18.841Z,31.57
2019-02-16T22:27:47.751Z,31.17
2019-02-16T22:30:17.008Z,31.63
2019-02-16T22:32:50.907Z,31.13
2019-02-16T22:35:41.390Z,34.63
2019-02-16T22:38:33.800Z,31.70
2019-02-16T22:41:03.058Z,32.40
2019-02-16T22:43:34.250Z,28.97
2019-02-16T22:46:03.476Z,30.77
2019-02-16T22:48:34.663Z,31.50
2019-02-16T22:51:03.911Z,35.87
2019-02-16T22:53:39.011Z,40.57
2019-02-16T22:56:08.264Z,35.03
2019-02-16T22:58:37.493Z,29.30
2019-02-16T23:01:06.729Z,34.10
2019-02-16T23:03:37.211Z,30.47
2019-02-16T23:06:13.471Z,31.57
2019-02-16T23:08:43.715Z,30.23
2019-02-16T23:11:16.079Z,28.77
2019-02-16T23:13:45.328Z,33.83
2019-02-16T23:16:14.562Z,33.50
2019-02-16T23:18:43.818Z,31.43
2019-02-16T23:21:13.042Z,32.40
2019-02-16T23:23:43.221Z,33.50
2019-02-16T23:26:14.426Z,29.47
2019-02-16T23:28:51.636Z,30.87
2019-02-16T23:31:21.666Z,30.40
2019-02-16T23:34:02.251Z,33.47
2019-02-16T23:36:31.563Z,33.03
2019-02-16T23:39:18.127Z,35.20
2019-02-16T23:41:47.344Z,41.83
2019-02-16T23:44:16.672Z,43.03
2019-02-16T23:46:45.891Z,38.60
2019-02-16T23:49:52.372Z,43.07
2019-02-16T23:52:21.781Z,39.73
2019-02-16T23:54:59.995Z,33.20
2019-02-16T23:57:29.312Z,35.57
2019-02-16T23:59:58.744Z,34.13
